createdAt,value
2023-06-13T00:00:32.224Z,1002.9
2023-06-13T00:01:33.184Z,1003
2023-06-13T00:02:34.231Z,1002.9
2023-06-13T00:03:35.240Z,1002.9
2023-06-13T00:04:36.195Z,1002.8
2023-06-13T00:05:37.202Z,1002.9
2023-06-13T00:06:38.215Z,1002.9
2023-06-13T00:07:39.292Z,1002.9
2023-06-13T00:08:40.206Z,1002.9
2023-06-13T00:09:41.220Z,1002.9
2023-06-13T00:10:42.213Z,1002.8
2023-06-13T00:11:43.221Z,1002.9
2023-06-13T00:12:44.216Z,1002.8
2023-06-13T00:13:45.210Z,1002.7
2023-06-13T00:14:46.222Z,1002.8
2023-06-13T00:15:47.228Z,1002.8
2023-06-13T00:16:48.203Z,1002.8
2023-06-13T00:17:49.575Z,1002.8
2023-06-13T00:18:50.224Z,1002.8
2023-06-13T00:19:51.213Z,1002.8
2023-06-13T00:20:52.621Z,1002.7
2023-06-13T00:21:54.216Z,1002.7
2023-06-13T00:22:55.220Z,1002.7
2023-06-13T00:23:56.274Z,1002.7
2023-06-13T00:24:57.228Z,1002.7
2023-06-13T00:25:58.260Z,1002.7
2023-06-13T00:26:59.234Z,1002.7
2023-06-13T00:28:00.687Z,1002.8
2023-06-13T00:29:02.218Z,1002.8
2023-06-13T00:30:03.242Z,1002.8
2023-06-13T00:31:04.245Z,1002.9
2023-06-13T00:32:05.305Z,1002.8
2023-06-13T00:33:06.327Z,1002.9
2023-06-13T00:34:07.232Z,1002.8
2023-06-13T00:35:08.220Z,1002.9
2023-06-13T00:36:09.263Z,1002.9
2023-06-13T00:37:10.220Z,1002.9
2023-06-13T00:38:11.223Z,1002.8
2023-06-13T00:39:12.225Z,1002.8
2023-06-13T00:40:13.529Z,1002.8
2023-06-13T00:41:14.247Z,1002.7
2023-06-13T00:42:15.221Z,1002.7
2023-06-13T00:43:16.215Z,1002.7
2023-06-13T00:44:17.215Z,1002.7
2023-06-13T00:45:18.244Z,1002.7
2023-06-13T00:46:19.254Z,1002.7
2023-06-13T00:47:20.473Z,1002.1
2023-06-13T00:48:21.310Z,1002.5
2023-06-13T00:49:22.256Z,1002.7
2023-06-13T00:50:23.221Z,1002.7
2023-06-13T00:51:24.233Z,1002.7
2023-06-13T00:52:25.308Z,1002.7
2023-06-13T00:53:26.242Z,1002.7
2023-06-13T00:54:27.229Z,1002.6
2023-06-13T00:55:28.244Z,1002.7
2023-06-13T00:56:29.280Z,1002.7
2023-06-13T00:57:30.251Z,1002.6
2023-06-13T00:58:31.223Z,1002.6
2023-06-13T00:59:32.240Z,1002.6
2023-06-13T01:00:33.239Z,1002.6
2023-06-13T01:01:34.273Z,1002.1
2023-06-13T01:02:35.368Z,1002.4
2023-06-13T01:03:36.238Z,1002.5
2023-06-13T01:04:37.444Z,1002.5
2023-06-13T01:05:38.233Z,1002.5
2023-06-13T01:06:39.265Z,1002.5
2023-06-13T01:07:40.240Z,1002.5
2023-06-13T01:08:41.238Z,1002.6
2023-06-13T01:09:42.244Z,1002.5
2023-06-13T01:10:43.244Z,1002.4
2023-06-13T01:11:44.241Z,1002
2023-06-13T01:12:45.316Z,1002.4
2023-06-13T01:13:46.255Z,1002.4
2023-06-13T01:14:47.282Z,1002.4
2023-06-13T01:15:48.237Z,1002.4
2023-06-13T01:16:49.367Z,1002.4
2023-06-13T01:17:50.258Z,1002.4
2023-06-13T01:18:51.249Z,1002.4
2023-06-13T01:19:52.688Z,1002.4
2023-06-13T01:20:54.252Z,1002.5
2023-06-13T01:21:55.247Z,1002.6
2023-06-13T01:22:56.249Z,1002.6
2023-06-13T01:23:57.257Z,1002.7
2023-06-13T01:24:58.241Z,1002.7
2023-06-13T01:25:59.261Z,1002.7
2023-06-13T01:27:00.235Z,1002.7
2023-06-13T01:28:01.269Z,1002.6
2023-06-13T01:29:02.260Z,1002.5
2023-06-13T01:30:03.294Z,1002.4
2023-06-13T01:31:04.253Z,1002.4
2023-06-13T01:32:05.373Z,1002.4
2023-06-13T01:33:06.280Z,1002.4
2023-06-13T01:34:07.284Z,1002.3
2023-06-13T01:35:08.256Z,1002.4
2023-06-13T01:36:09.250Z,1002.4
2023-06-13T01:37:10.264Z,1002.3
2023-06-13T01:38:11.246Z,1002.3
2023-06-13T01:39:12.253Z,1002.3
2023-06-13T01:40:13.565Z,1002.4
2023-06-13T01:41:14.273Z,1002.4
2023-06-13T01:42:15.405Z,1002.4
2023-06-13T01:43:16.269Z,1002.4
2023-06-13T01:44:17.254Z,1002.3
2023-06-13T01:45:18.267Z,1002.3
2023-06-13T01:46:19.318Z,1002.3
2023-06-13T01:47:20.448Z,1002.3
2023-06-13T01:48:21.292Z,1002.3
2023-06-13T01:49:22.281Z,1002.1
2023-06-13T01:50:23.262Z,1002.4
2023-06-13T01:51:24.273Z,1002.4
2023-06-13T01:52:25.312Z,1002.5
2023-06-13T01:53:26.268Z,1002.5
2023-06-13T01:54:27.246Z,1002.5
2023-06-13T01:55:28.259Z,1002.5
2023-06-13T01:56:29.268Z,1002.5
2023-06-13T01:57:30.263Z,1002.4
2023-06-13T01:58:31.195Z,1002.3
2023-06-13T01:59:32.213Z,1002.3
2023-06-13T02:00:33.216Z,1002.3
2023-06-13T02:01:34.262Z,1002.3
2023-06-13T02:02:35.221Z,1002.3
2023-06-13T02:03:36.242Z,1002.3
2023-06-13T02:04:37.208Z,1002.3
2023-06-13T02:05:38.212Z,1002.3
2023-06-13T02:06:39.226Z,1002.3
2023-06-13T02:07:40.245Z,1002.3
2023-06-13T02:08:41.192Z,1002.3
2023-06-13T02:09:42.217Z,1001.8
2023-06-13T02:10:43.804Z,1002.3
2023-06-13T02:11:45.220Z,1002.4
2023-06-13T02:12:46.231Z,1002.5
2023-06-13T02:13:47.206Z,1002.4
2023-06-13T02:14:48.197Z,1002.5
2023-06-13T02:15:49.239Z,1002.5
2023-06-13T02:16:50.246Z,1002.5
2023-06-13T02:17:51.309Z,1002.5
2023-06-13T02:18:52.704Z,1002.6
2023-06-13T02:19:54.208Z,1002.5
2023-06-13T02:20:55.237Z,1002.5
2023-06-13T02:21:56.198Z,1002.5
2023-06-13T02:22:57.254Z,1002.5
2023-06-13T02:23:58.213Z,1002.4
2023-06-13T02:24:59.211Z,1002.4
2023-06-13T02:26:00.260Z,1002.4
2023-06-13T02:27:01.244Z,1002.4
2023-06-13T02:28:02.214Z,1002.4
2023-06-13T02:29:03.220Z,1002.5
2023-06-13T02:30:04.248Z,1002.4
2023-06-13T02:31:05.286Z,1002.4
2023-06-13T02:32:06.218Z,1002
2023-06-13T02:33:07.251Z,1002.3
2023-06-13T02:34:08.241Z,1002.4
2023-06-13T02:35:09.217Z,1002.3
2023-06-13T02:36:10.212Z,1002.4
2023-06-13T02:37:11.219Z,1002.3
2023-06-13T02:38:12.265Z,1002.3
2023-06-13T02:39:13.219Z,1002.4
2023-06-13T02:40:14.525Z,1002.4
2023-06-13T02:41:15.218Z,1002.3
2023-06-13T02:42:16.216Z,1002.4
2023-06-13T02:43:17.238Z,1002.4
2023-06-13T02:44:18.225Z,1002.4
2023-06-13T02:45:19.218Z,1002.3
2023-06-13T02:46:20.242Z,1002.4
2023-06-13T02:47:21.247Z,1002.4
2023-06-13T02:48:22.322Z,1002.4
2023-06-13T02:49:23.218Z,1002.4
2023-06-13T02:50:24.227Z,1002.4
2023-06-13T02:51:25.272Z,1002.4
2023-06-13T02:52:26.269Z,1002.4
2023-06-13T02:53:27.236Z,1002.4
2023-06-13T02:54:28.224Z,1002.4
2023-06-13T02:55:29.241Z,1002.4
2023-06-13T02:56:30.216Z,1002.4
2023-06-13T02:57:31.265Z,1002.4
2023-06-13T02:58:32.217Z,1002.4
2023-06-13T02:59:33.210Z,1002.3
2023-06-13T03:00:34.217Z,1002.4
2023-06-13T03:01:35.265Z,1002.3
2023-06-13T03:02:36.302Z,1002.3
2023-06-13T03:03:37.248Z,1002.3
2023-06-13T03:04:38.221Z,1002.3
2023-06-13T03:05:39.234Z,1002
2023-06-13T03:06:40.236Z,1002.2
2023-06-13T03:07:41.238Z,1002.3
2023-06-13T03:08:42.258Z,1002.4
2023-06-13T03:09:43.239Z,1002.3
2023-06-13T03:10:44.234Z,1002.3
2023-06-13T03:11:45.282Z,1002.3
2023-06-13T03:12:46.499Z,1002.4
2023-06-13T03:13:47.233Z,1002.4
2023-06-13T03:14:48.241Z,1002.4
2023-06-13T03:15:49.237Z,1002.3
2023-06-13T03:16:50.278Z,1002.4
2023-06-13T03:17:51.337Z,1002.4
2023-06-13T03:18:52.268Z,1002.4
2023-06-13T03:20:00.511Z,1002.5
2023-06-13T03:20:54.231Z,1002.5
2023-06-13T03:21:55.236Z,1002.5
2023-06-13T03:22:56.257Z,1002.4
2023-06-13T03:23:57.282Z,1002.4
2023-06-13T03:24:58.236Z,1002.5
2023-06-13T03:25:59.307Z,1002.4
2023-06-13T03:27:00.259Z,1002.5
2023-06-13T03:28:01.283Z,1002.4
2023-06-13T03:29:02.245Z,1002.4
2023-06-13T03:30:03.297Z,1002.5
2023-06-13T03:31:04.308Z,1002.4
2023-06-13T03:32:05.285Z,1002.5
2023-06-13T03:33:06.372Z,1002.5
2023-06-13T03:34:07.294Z,1002.5
2023-06-13T03:35:08.246Z,1002.6
2023-06-13T03:36:09.254Z,1002.6
2023-06-13T03:37:10.267Z,1002.6
2023-06-13T03:38:11.266Z,1002.5
2023-06-13T03:39:12.279Z,1002.5
2023-06-13T03:40:13.490Z,1002.5
2023-06-13T03:41:14.250Z,1002.5
2023-06-13T03:42:15.247Z,1002.5
2023-06-13T03:43:16.261Z,1002.5
2023-06-13T03:44:17.256Z,1002.5
2023-06-13T03:45:18.262Z,1002.5
2023-06-13T03:46:19.271Z,1002.5
2023-06-13T03:47:20.357Z,1002
2023-06-13T03:48:21.346Z,1002.3
2023-06-13T03:49:22.395Z,1002.3
2023-06-13T03:50:23.265Z,1002.4
2023-06-13T03:51:24.259Z,1002.3
2023-06-13T03:52:25.280Z,1002.4
2023-06-13T03:53:26.276Z,1002.3
2023-06-13T03:54:27.256Z,1002.4
2023-06-13T03:55:28.276Z,1002.3
2023-06-13T03:56:29.260Z,1002.3
2023-06-13T03:57:30.254Z,1002.3
2023-06-13T03:58:31.261Z,1002.3
2023-06-13T03:59:32.259Z,1002.3
2023-06-13T04:00:33.318Z,1002.3
2023-06-13T04:01:34.264Z,1002.3
2023-06-13T04:02:35.320Z,1002.2
2023-06-13T04:03:36.338Z,1002.3
2023-06-13T04:04:37.281Z,1002.3
2023-06-13T04:05:38.320Z,1002.2
2023-06-13T04:06:39.269Z,1002.3
2023-06-13T04:07:40.276Z,1002.3
2023-06-13T04:08:41.316Z,1002.4
2023-06-13T04:09:42.258Z,1002.4
2023-06-13T04:10:43.256Z,1002.4
2023-06-13T04:11:44.272Z,1002.4
2023-06-13T04:12:45.344Z,1002.4
2023-06-13T04:13:46.275Z,1002.3
2023-06-13T04:14:47.270Z,1002.3
2023-06-13T04:15:48.636Z,1002.3
2023-06-13T04:16:49.374Z,1002.4
2023-06-13T04:17:50.317Z,1002.3
2023-06-13T04:18:51.272Z,1002.3
2023-06-13T04:19:52.312Z,1002.4
2023-06-13T04:20:53.467Z,1002.4
2023-06-13T04:21:54.286Z,1002.4
2023-06-13T04:22:55.282Z,1002.4
2023-06-13T04:23:56.385Z,1002.4
2023-06-13T04:24:57.278Z,1002.4
2023-06-13T04:25:58.344Z,1002.4
2023-06-13T04:26:59.307Z,1002.4
2023-06-13T04:28:00.283Z,1002.4
2023-06-13T04:29:01.324Z,1002.4
2023-06-13T04:30:02.316Z,1002.4
2023-06-13T04:31:03.283Z,1002.4
2023-06-13T04:32:04.341Z,1002.4
2023-06-13T04:33:05.492Z,1002.4
2023-06-13T04:34:06.378Z,1002.4
2023-06-13T04:35:07.332Z,1002.4
2023-06-13T04:36:08.264Z,1002.5
2023-06-13T04:37:09.285Z,1002.4
2023-06-13T04:38:10.271Z,1002.4
2023-06-13T04:39:11.318Z,1002.4
2023-06-13T04:40:12.411Z,1002.4
2023-06-13T04:41:13.274Z,1002.5
2023-06-13T04:42:14.283Z,1002.4
2023-06-13T04:43:15.276Z,1002.4
2023-06-13T04:44:16.282Z,1002.4
2023-06-13T04:45:17.329Z,1002.4
2023-06-13T04:46:18.298Z,1002.4
2023-06-13T04:47:19.272Z,1002.4
2023-06-13T04:48:20.357Z,1002.3
2023-06-13T04:49:21.296Z,1002.3
2023-06-13T04:50:22.306Z,1002.3
2023-06-13T04:51:23.276Z,1002.3
2023-06-13T04:52:24.305Z,1002.3
2023-06-13T04:53:25.348Z,1002.1
2023-06-13T04:54:26.368Z,1002
2023-06-13T04:55:27.313Z,1002.2
2023-06-13T04:56:28.296Z,1002.2
2023-06-13T04:57:29.282Z,1002.3
2023-06-13T04:58:30.330Z,1002.3
2023-06-13T04:59:31.331Z,1002.3
2023-06-13T05:00:32.321Z,1002.3
2023-06-13T05:01:33.358Z,1002.2
2023-06-13T05:02:34.397Z,1002.3
2023-06-13T05:03:35.313Z,1002.2
2023-06-13T05:04:36.313Z,1002.2
2023-06-13T05:05:37.362Z,1002.3
2023-06-13T05:06:38.329Z,1002.2
2023-06-13T05:07:39.303Z,1002.3
2023-06-13T05:08:40.320Z,1002.3
2023-06-13T05:09:41.302Z,1002.3
2023-06-13T05:10:42.344Z,1002.3
2023-06-13T05:11:43.291Z,1002.2
2023-06-13T05:12:44.296Z,1002.2
2023-06-13T05:13:45.352Z,1002.2
2023-06-13T05:14:46.323Z,1002.3
2023-06-13T05:15:47.331Z,1002.3
2023-06-13T05:16:48.296Z,1002.2
2023-06-13T05:17:49.347Z,1002.2
2023-06-13T05:18:50.309Z,1002.2
2023-06-13T05:19:51.318Z,1002.3
2023-06-13T05:20:52.341Z,1002.2
2023-06-13T05:21:53.529Z,1002.2
2023-06-13T05:22:54.325Z,1002.1
2023-06-13T05:23:55.304Z,1002.2
2023-06-13T05:24:56.348Z,1002.2
2023-06-13T05:25:57.307Z,1002.2
2023-06-13T05:26:58.318Z,1002.1
2023-06-13T05:27:59.311Z,1002.1
2023-06-13T05:29:00.311Z,1002.1
2023-06-13T05:30:01.363Z,1002.2
2023-06-13T05:31:02.415Z,1002.2
2023-06-13T05:32:03.315Z,1002.2
2023-06-13T05:33:04.327Z,1002.2
2023-06-13T05:34:05.396Z,1002.2
2023-06-13T05:35:06.324Z,1002.2
2023-06-13T05:36:07.351Z,1002.2
2023-06-13T05:37:08.329Z,1002.2
2023-06-13T05:38:09.314Z,1002.2
2023-06-13T05:39:13.044Z,1002.2
2023-06-13T05:40:12.597Z,1002.2
2023-06-13T05:41:13.314Z,1002.3
2023-06-13T05:42:14.312Z,1002.3
2023-06-13T05:43:15.305Z,1002.3
2023-06-13T05:44:16.374Z,1002.3
2023-06-13T05:45:17.338Z,1002.3
2023-06-13T05:46:18.313Z,1002.3
2023-06-13T05:47:19.339Z,1002.3
2023-06-13T05:48:20.381Z,1002.1
2023-06-13T05:49:21.408Z,1002.2
2023-06-13T05:50:22.320Z,1002.3
2023-06-13T05:51:23.366Z,1002.3
2023-06-13T05:52:24.324Z,1002.3
2023-06-13T05:53:25.409Z,1002.3
2023-06-13T05:54:26.365Z,1002.3
2023-06-13T05:55:27.359Z,1002.3
2023-06-13T05:56:28.371Z,1002.3
2023-06-13T05:57:29.350Z,1002.2
2023-06-13T05:58:30.332Z,1002.2
2023-06-13T05:59:31.415Z,1002.3
2023-06-13T06:00:34.895Z,1002.3
2023-06-13T06:01:33.305Z,1002.3
2023-06-13T06:02:34.390Z,1002.3
2023-06-13T06:03:35.383Z,1002.3
2023-06-13T06:04:36.341Z,1002.2
2023-06-13T06:05:37.367Z,1002.2
2023-06-13T06:06:38.373Z,1002.2
2023-06-13T06:07:39.406Z,1002.2
2023-06-13T06:08:40.348Z,1002.2
2023-06-13T06:09:41.367Z,1002.2
2023-06-13T06:10:42.356Z,1002.2
2023-06-13T06:11:43.349Z,1002.2
2023-06-13T06:12:44.351Z,1002.2
2023-06-13T06:13:45.442Z,1002.2
2023-06-13T06:14:46.330Z,1002.3
2023-06-13T06:15:47.331Z,1002.3
2023-06-13T06:16:48.371Z,1002.2
2023-06-13T06:17:49.423Z,1002.2
2023-06-13T06:18:50.428Z,1002.2
2023-06-13T06:19:51.464Z,1002.2
2023-06-13T06:20:52.340Z,1002.2
2023-06-13T06:21:53.388Z,1002.2
2023-06-13T06:22:54.505Z,1002.2
2023-06-13T06:23:55.393Z,1002.2
2023-06-13T06:24:56.374Z,1002.3
2023-06-13T06:25:57.342Z,1002.2
2023-06-13T06:26:58.328Z,1002.2
2023-06-13T06:27:59.377Z,1002.2
2023-06-13T06:29:00.381Z,1002.2
2023-06-13T06:30:01.431Z,1002.2
2023-06-13T06:31:02.393Z,1002.1
2023-06-13T06:32:03.387Z,1002.1
2023-06-13T06:33:04.400Z,1002.2
2023-06-13T06:34:05.415Z,1002.1
2023-06-13T06:35:06.409Z,1002.1
2023-06-13T06:36:07.347Z,1002.1
2023-06-13T06:37:08.802Z,1002.1
2023-06-13T06:38:09.357Z,1002
2023-06-13T06:39:10.400Z,1002
2023-06-13T06:40:11.650Z,1002.1
2023-06-13T06:41:12.368Z,1002
2023-06-13T06:42:13.344Z,1002.1
2023-06-13T06:43:14.365Z,1002.1
2023-06-13T06:44:15.342Z,1002
2023-06-13T06:45:16.354Z,1002
2023-06-13T06:46:17.379Z,1002
2023-06-13T06:47:18.380Z,1002
2023-06-13T06:48:19.351Z,1002
2023-06-13T06:49:20.392Z,1002
2023-06-13T06:50:21.465Z,1002
2023-06-13T06:51:24.649Z,1002
2023-06-13T06:52:23.379Z,1002
2023-06-13T06:53:24.347Z,1002
2023-06-13T06:54:25.369Z,1002
2023-06-13T06:55:26.404Z,1002
2023-06-13T06:56:27.352Z,1002
2023-06-13T06:57:28.390Z,1002.1
2023-06-13T06:58:29.436Z,1002
2023-06-13T06:59:30.359Z,1001.9
2023-06-13T07:00:31.422Z,1001.9
2023-06-13T07:01:32.553Z,1002
2023-06-13T07:02:33.462Z,1001.9
2023-06-13T07:03:34.524Z,1001.9
2023-06-13T07:04:35.362Z,1001.9
2023-06-13T07:05:36.363Z,1001.9
2023-06-13T07:06:37.427Z,1001.9
2023-06-13T07:07:38.378Z,1001.9
2023-06-13T07:08:39.363Z,1001.9
2023-06-13T07:09:40.369Z,1001.9
2023-06-13T07:10:41.388Z,1001.9
2023-06-13T07:11:42.396Z,1001.9
2023-06-13T07:12:43.393Z,1001.9
2023-06-13T07:13:44.389Z,1002
2023-06-13T07:14:45.469Z,1001.9
2023-06-13T07:15:46.404Z,1001.9
2023-06-13T07:16:47.491Z,1001.9
2023-06-13T07:17:48.415Z,1001.9
2023-06-13T07:18:49.404Z,1001.9
2023-06-13T07:19:50.359Z,1001.9
2023-06-13T07:20:51.429Z,1001.9
2023-06-13T07:21:52.392Z,1001.9
2023-06-13T07:22:53.416Z,1001.9
2023-06-13T07:24:06.563Z,1001.9
2023-06-13T07:24:55.452Z,1001.8
2023-06-13T07:25:56.422Z,1001.9
2023-06-13T07:26:57.403Z,1001.8
2023-06-13T07:27:58.404Z,1001.9
2023-06-13T07:28:59.437Z,1001.7
2023-06-13T07:30:00.441Z,1001.9
2023-06-13T07:31:01.518Z,1001.9
2023-06-13T07:32:02.504Z,1002
2023-06-13T07:33:03.388Z,1002
2023-06-13T07:34:05.495Z,1001.9
2023-06-13T07:35:06.614Z,1001.9
2023-06-13T07:36:06.427Z,1002
2023-06-13T07:37:07.409Z,1002
2023-06-13T07:38:08.402Z,1001.9
2023-06-13T07:39:09.378Z,1001.9
2023-06-13T07:40:10.434Z,1001.9
2023-06-13T07:41:11.393Z,1001.9
2023-06-13T07:42:12.420Z,1001.9
2023-06-13T07:43:13.396Z,1001.9
2023-06-13T07:44:14.437Z,1002
2023-06-13T07:45:15.412Z,1002
2023-06-13T07:46:16.457Z,1001.9
2023-06-13T07:47:17.422Z,1001.9
2023-06-13T07:48:18.436Z,1001.9
2023-06-13T07:49:19.445Z,1001.9
2023-06-13T07:50:20.457Z,1001.9
2023-06-13T07:51:21.431Z,1001.9
2023-06-13T07:52:22.448Z,1001.9
2023-06-13T07:53:23.414Z,1001.9
2023-06-13T07:54:24.400Z,1001.9
2023-06-13T07:55:25.421Z,1001.9
2023-06-13T07:56:26.440Z,1001.8
2023-06-13T07:57:40.201Z,1001.9
2023-06-13T07:58:28.431Z,1001.8
2023-06-13T07:59:29.468Z,1001.8
2023-06-13T08:00:30.418Z,1001.9
2023-06-13T08:01:31.449Z,1001.9
2023-06-13T08:02:32.488Z,1001.9
2023-06-13T08:03:33.512Z,1002
2023-06-13T08:04:52.289Z,1001.9
2023-06-13T08:05:35.460Z,1001.9
2023-06-13T08:06:36.432Z,1002
2023-06-13T08:07:37.426Z,1001.9
2023-06-13T08:08:38.409Z,1001.9
2023-06-13T08:09:39.483Z,1001.9
2023-06-13T08:10:40.478Z,1001.9
2023-06-13T08:11:41.467Z,1001.8
2023-06-13T08:12:42.436Z,1001.8
2023-06-13T08:13:43.472Z,1001.8
2023-06-13T08:14:44.439Z,1001.8
2023-06-13T08:15:45.521Z,1001.9
2023-06-13T08:17:47.492Z,1001.8
2023-06-13T08:18:48.444Z,1001.7
2023-06-13T08:19:49.456Z,1001.7
2023-06-13T08:20:50.441Z,1001.8
2023-06-13T08:21:51.476Z,1001.8
2023-06-13T08:22:52.443Z,1001.8
2023-06-13T08:23:53.491Z,1001.8
2023-06-13T08:24:54.709Z,1001.7
2023-06-13T08:25:55.412Z,1001.7
2023-06-13T08:26:56.525Z,1001.7
2023-06-13T08:27:57.449Z,1001.6
2023-06-13T08:28:58.438Z,1001.7
2023-06-13T08:29:59.470Z,1001.1
2023-06-13T08:31:14.206Z,1001.5
2023-06-13T08:32:01.495Z,1001.6
2023-06-13T08:33:02.542Z,1001.7
2023-06-13T08:34:08.402Z,1001.7
2023-06-13T08:35:04.459Z,1001.7
2023-06-13T08:36:12.883Z,1001.6
2023-06-13T08:37:06.472Z,1001.4
2023-06-13T08:38:07.453Z,1001.5
2023-06-13T08:39:08.821Z,1001.6
2023-06-13T08:40:09.481Z,1001.7
2023-06-13T08:41:10.440Z,1001.7
2023-06-13T08:42:11.469Z,1001.7
2023-06-13T08:43:12.450Z,1001.7
2023-06-13T08:44:13.434Z,1001.7
2023-06-13T08:45:14.799Z,1001.7
2023-06-13T08:46:15.558Z,1001.8
2023-06-13T08:47:32.126Z,1001.8
2023-06-13T08:48:17.493Z,1001.8
2023-06-13T08:49:18.517Z,1001.8
2023-06-13T08:50:19.548Z,1001.8
2023-06-13T08:51:20.451Z,1001.8
2023-06-13T08:52:21.469Z,1001.8
2023-06-13T08:53:22.460Z,1001.8
2023-06-13T08:54:23.524Z,1001.8
2023-06-13T08:55:58.322Z,1001.8
2023-06-13T08:56:25.597Z,1001.8
2023-06-13T08:57:26.441Z,1001.4
2023-06-13T08:58:27.460Z,1001.7
2023-06-13T08:59:28.462Z,1001.8
2023-06-13T09:00:29.465Z,1001.8
2023-06-13T09:01:30.621Z,1001.8
2023-06-13T09:02:31.455Z,1001.9
2023-06-13T09:03:32.610Z,1001.8
2023-06-13T09:04:33.535Z,1001.8
2023-06-13T09:05:34.514Z,1001.8
2023-06-13T09:06:35.483Z,1001.9
2023-06-13T09:07:36.433Z,1001.8
2023-06-13T09:08:37.491Z,1001.8
2023-06-13T09:09:38.548Z,1001.8
2023-06-13T09:10:39.493Z,1001.8
2023-06-13T09:11:40.503Z,1001.8
2023-06-13T09:12:41.470Z,1001.8
2023-06-13T09:13:42.459Z,1001.8
2023-06-13T09:14:43.487Z,1001.8
2023-06-13T09:15:44.463Z,1001.8
2023-06-13T09:16:45.528Z,1001.9
2023-06-13T09:17:46.680Z,1001.9
2023-06-13T09:18:47.489Z,1001.8
2023-06-13T09:19:48.456Z,1001.9
2023-06-13T09:20:49.446Z,1001.9
2023-06-13T09:21:50.477Z,1001.8
2023-06-13T09:22:51.480Z,1001.8
2023-06-13T09:23:52.520Z,1001.9
2023-06-13T09:24:53.504Z,1001.8
2023-06-13T09:25:54.729Z,1001.7
2023-06-13T09:26:55.474Z,1001.8
2023-06-13T09:27:57.926Z,1001.8
2023-06-13T09:28:57.478Z,1001.8
2023-06-13T09:29:58.490Z,1001.8
2023-06-13T09:30:59.571Z,1001.8
2023-06-13T09:32:00.525Z,1001.8
2023-06-13T09:33:01.965Z,1001.7
2023-06-13T09:34:03.486Z,1001.8
2023-06-13T09:35:04.511Z,1001.8
2023-06-13T09:36:06.386Z,1001.8
2023-06-13T09:37:06.597Z,1001.8
2023-06-13T09:38:07.506Z,1001.8
2023-06-13T09:39:08.467Z,1001.8
2023-06-13T09:40:14.099Z,1001.8
2023-06-13T09:41:10.434Z,1001.8
2023-06-13T09:42:11.470Z,1001.7
2023-06-13T09:43:12.519Z,1001.8
2023-06-13T09:44:13.494Z,1001.7
2023-06-13T09:45:14.480Z,1001.7
2023-06-13T09:46:15.525Z,1001.8
2023-06-13T09:47:16.467Z,1001.7
2023-06-13T09:48:17.469Z,1001.7
2023-06-13T09:49:18.490Z,1001.8
2023-06-13T09:50:19.538Z,1001.7
2023-06-13T09:51:20.503Z,1001.7
2023-06-13T09:52:21.491Z,1001.8
2023-06-13T09:53:22.596Z,1001.7
2023-06-13T09:54:23.477Z,1001.7
2023-06-13T09:55:24.556Z,1001.7
2023-06-13T09:56:26.063Z,1001.7
2023-06-13T09:57:38.320Z,1001.7
2023-06-13T09:58:32.749Z,1001.7
2023-06-13T09:59:28.453Z,1001.7
2023-06-13T10:00:29.524Z,1001.7
2023-06-13T10:01:30.509Z,1001.7
2023-06-13T10:02:31.504Z,1001.7
2023-06-13T10:03:32.584Z,1001.7
2023-06-13T10:04:33.482Z,1001.7
2023-06-13T10:05:34.477Z,1001.7
2023-06-13T10:06:35.506Z,1001.6
2023-06-13T10:07:36.463Z,1001.7
2023-06-13T10:08:37.540Z,1001.5
2023-06-13T10:09:38.488Z,1001.6
2023-06-13T10:10:39.529Z,1001.7
2023-06-13T10:11:40.487Z,1001.7
2023-06-13T10:12:41.502Z,1001.7
2023-06-13T10:13:42.534Z,1001.7
2023-06-13T10:14:43.494Z,1001.7
2023-06-13T10:15:44.544Z,1001.7
2023-06-13T10:16:51.248Z,1001.7
2023-06-13T10:17:46.653Z,1001.8
2023-06-13T10:18:47.514Z,1001.7
2023-06-13T10:19:49.329Z,1001.7
2023-06-13T10:20:49.477Z,1001.7
2023-06-13T10:21:52.031Z,1001.7
2023-06-13T10:22:51.473Z,1001.7
2023-06-13T10:23:52.647Z,1001.7
2023-06-13T10:24:53.520Z,1001.7
2023-06-13T10:25:54.808Z,1001.7
2023-06-13T10:26:55.489Z,1001.7
2023-06-13T10:27:56.483Z,1001.6
2023-06-13T10:28:57.518Z,1001.6
2023-06-13T10:29:58.526Z,1001.7
2023-06-13T10:30:59.502Z,1001.7
2023-06-13T10:32:00.574Z,1001.7
2023-06-13T10:33:01.553Z,1001.7
2023-06-13T10:34:02.565Z,1001.4
2023-06-13T10:35:03.535Z,1001.5
2023-06-13T10:36:04.529Z,1001.5
2023-06-13T10:37:07.249Z,1001.6
2023-06-13T10:38:06.594Z,1001.6
2023-06-13T10:39:07.505Z,1001.6
2023-06-13T10:40:08.527Z,1001.5
2023-06-13T10:41:09.540Z,1001.6
2023-06-13T10:42:10.508Z,1001.5
2023-06-13T10:43:11.574Z,1001.6
2023-06-13T10:44:12.492Z,1001.5
2023-06-13T10:45:13.520Z,1001.6
2023-06-13T10:46:14.572Z,1001.5
2023-06-13T10:47:15.485Z,1001.6
2023-06-13T10:48:16.514Z,1001.6
2023-06-13T10:49:17.529Z,1001.5
2023-06-13T10:50:18.640Z,1001.6
2023-06-13T10:51:19.546Z,1001.6
2023-06-13T10:52:20.528Z,1001.5
2023-06-13T10:53:21.534Z,1001.6
2023-06-13T10:54:22.497Z,1001.6
2023-06-13T10:55:23.522Z,1001.6
2023-06-13T10:56:24.588Z,1001.6
2023-06-13T10:57:25.554Z,1001.2
2023-06-13T10:58:26.655Z,1001.4
2023-06-13T10:59:27.505Z,1001.5
2023-06-13T11:00:28.688Z,1001.5
2023-06-13T11:01:29.644Z,1001.6
2023-06-13T11:02:30.555Z,1001.6
2023-06-13T11:03:31.589Z,1001.6
2023-06-13T11:04:32.548Z,1001.5
2023-06-13T11:05:42.257Z,1001.5
2023-06-13T11:06:34.529Z,1001.5
2023-06-13T11:07:35.566Z,1001.5
2023-06-13T11:08:36.516Z,1001.5
2023-06-13T11:09:37.606Z,1001.5
2023-06-13T11:10:38.576Z,1001.5
2023-06-13T11:11:39.598Z,1001.6
2023-06-13T11:12:40.513Z,1001.6
2023-06-13T11:13:41.552Z,1001.6
2023-06-13T11:14:42.538Z,1001.6
2023-06-13T11:15:43.520Z,1001.6
2023-06-13T11:16:44.606Z,1001.6
2023-06-13T11:17:46.500Z,1001.5
2023-06-13T11:18:46.550Z,1001.5
2023-06-13T11:19:47.550Z,1001.4
2023-06-13T11:20:48.520Z,1001.5
2023-06-13T11:21:49.546Z,1001.4
2023-06-13T11:22:50.555Z,1001.4
2023-06-13T11:23:51.590Z,1001.4
2023-06-13T11:24:52.516Z,1001.4
2023-06-13T11:25:53.509Z,1001.5
2023-06-13T11:26:54.594Z,1001.4
2023-06-13T11:27:55.548Z,1001.4
2023-06-13T11:28:56.541Z,1001
2023-06-13T11:29:57.568Z,1001.4
2023-06-13T11:30:58.518Z,1001.4
2023-06-13T11:31:59.647Z,1001.2
2023-06-13T11:33:00.631Z,1001.5
2023-06-13T11:34:01.547Z,1001.3
2023-06-13T11:35:02.569Z,1001.4
2023-06-13T11:36:03.537Z,1001.4
2023-06-13T11:37:04.545Z,1001.4
2023-06-13T11:38:05.608Z,1001.3
2023-06-13T11:39:06.524Z,1001.3
2023-06-13T11:40:18.709Z,1001.2
2023-06-13T11:41:08.551Z,1001.3
2023-06-13T11:42:09.586Z,1001.2
2023-06-13T11:43:10.525Z,1001.2
2023-06-13T11:44:11.557Z,1001.2
2023-06-13T11:45:12.556Z,1001.2
2023-06-13T11:46:13.562Z,1001.3
2023-06-13T11:47:14.713Z,1001.3
2023-06-13T11:48:15.661Z,1001.2
2023-06-13T11:49:16.690Z,1001
2023-06-13T11:50:17.729Z,1001.2
2023-06-13T11:51:18.714Z,1001.2
2023-06-13T11:52:19.592Z,1001.3
2023-06-13T11:53:20.530Z,1001.2
2023-06-13T11:54:21.569Z,1001.2
2023-06-13T11:55:23.079Z,1001.2
2023-06-13T11:56:23.571Z,1001.2
2023-06-13T11:57:24.599Z,1001.3
2023-06-13T11:58:25.613Z,1001.3
2023-06-13T11:59:26.626Z,1001.2
2023-06-13T12:00:27.554Z,1001.2
2023-06-13T12:01:29.284Z,1001.2
2023-06-13T12:02:29.632Z,1001.3
2023-06-13T12:03:30.594Z,1001.2
2023-06-13T12:04:31.664Z,1001.2
2023-06-13T12:05:32.654Z,1001.2
2023-06-13T12:06:33.526Z,1001.1
2023-06-13T12:07:34.555Z,1001.1
2023-06-13T12:08:35.596Z,1001.2
2023-06-13T12:09:36.623Z,1001.1
2023-06-13T12:10:38.084Z,1001.1
2023-06-13T12:11:39.549Z,1001.1
2023-06-13T12:12:40.604Z,1001.1
2023-06-13T12:13:41.542Z,1001.1
2023-06-13T12:14:42.599Z,1001.1
2023-06-13T12:15:43.565Z,1001.1
2023-06-13T12:16:44.581Z,1001.1
2023-06-13T12:17:45.661Z,1001.1
2023-06-13T12:18:46.548Z,1001
2023-06-13T12:19:47.575Z,1001
2023-06-13T12:20:48.562Z,1001
2023-06-13T12:21:49.554Z,1001
2023-06-13T12:22:50.558Z,1001
2023-06-13T12:23:51.583Z,1001.1
2023-06-13T12:24:52.576Z,1001
2023-06-13T12:25:53.576Z,1001
2023-06-13T12:26:54.546Z,1001
2023-06-13T12:27:55.686Z,1001
2023-06-13T12:28:57.280Z,1001
2023-06-13T12:29:57.555Z,1001
2023-06-13T12:30:58.707Z,1001
2023-06-13T12:31:59.592Z,1001
2023-06-13T12:33:00.667Z,1001.1
2023-06-13T12:34:01.576Z,1001.1
2023-06-13T12:35:02.602Z,1001.1
2023-06-13T12:36:03.607Z,1001.1
2023-06-13T12:37:04.565Z,1001
2023-06-13T12:38:05.616Z,1000.9
2023-06-13T12:39:06.581Z,1001
2023-06-13T12:40:07.621Z,1001
2023-06-13T12:41:08.585Z,1001
2023-06-13T12:42:09.613Z,1001
2023-06-13T12:43:10.599Z,1001.1
2023-06-13T12:44:11.570Z,1000.6
2023-06-13T12:45:12.674Z,1001